createdAt,value
2019-02-02T00:01:08.936Z,99016.23
2019-02-02T00:03:40.299Z,99012.72
2019-02-02T00:06:08.924Z,99015.31
2019-02-02T00:08:37.523Z,99019.32
2019-02-02T00:11:06.180Z,99012.22
2019-02-02T00:13:34.791Z,99012.41
2019-02-02T00:16:03.721Z,99011.47
2019-02-02T00:18:33.854Z,99008.27
2019-02-02T00:21:04.053Z,98998.68
2019-02-02T00:23:35.619Z,98986.17
2019-02-02T00:26:04.562Z,98978.81
2019-02-02T00:28:33.110Z,98984.20
2019-02-02T00:31:03.236Z,98983.46
2019-02-02T00:33:31.864Z,98991.89
2019-02-02T00:36:00.619Z,98989.16
2019-02-02T00:38:29.170Z,98993.72
2019-02-02T00:40:57.766Z,99002.18
2019-02-02T00:43:26.322Z,99000.50
2019-02-02T00:45:54.921Z,99005.09
2019-02-02T00:48:23.520Z,99004.54
2019-02-02T00:50:52.091Z,99013.25
2019-02-02T00:53:20.688Z,99013.59
2019-02-02T00:55:49.242Z,99018.24
2019-02-02T00:58:17.840Z,99018.73
2019-02-02T01:00:46.431Z,99010.05
2019-02-02T01:03:15.065Z,99010.41
2019-02-02T01:05:43.965Z,99008.91
2019-02-02T01:08:12.570Z,99008.02
2019-02-02T01:10:44.220Z,99016.09
2019-02-02T01:13:12.803Z,99025.30
2019-02-02T01:15:41.499Z,99027.31
2019-02-02T01:18:10.088Z,99017.37
2019-02-02T01:20:39.148Z,99018.57
2019-02-02T01:23:07.755Z,99014.11
2019-02-02T01:25:36.310Z,99005.86
2019-02-02T01:28:05.775Z,98997.20
2019-02-02T01:30:34.514Z,98989.34
2019-02-02T01:33:03.075Z,98985.97
2019-02-02T01:35:33.216Z,98991.00
2019-02-02T01:38:01.906Z,98998.44
2019-02-02T01:40:30.462Z,99004.43
2019-02-02T01:42:59.066Z,99005.02
2019-02-02T01:45:28.900Z,99004.84
2019-02-02T01:47:57.591Z,99017.96
2019-02-02T01:50:27.630Z,99005.93
2019-02-02T01:52:56.256Z,99007.19
2019-02-02T01:55:24.995Z,98998.66
2019-02-02T01:57:53.697Z,98999.64
2019-02-02T02:00:24.972Z,98992.17
2019-02-02T02:02:53.598Z,98983.94
2019-02-02T02:05:22.291Z,98988.72
2019-02-02T02:07:51.085Z,98978.67
2019-02-02T02:10:20.742Z,98980.22
2019-02-02T02:12:49.680Z,98978.69
2019-02-02T02:15:19.476Z,98984.20
2019-02-02T02:17:49.168Z,98983.59
2019-02-02T02:20:19.501Z,98981.33
2019-02-02T02:22:49.445Z,98980.88
2019-02-02T02:25:19.340Z,98976.09
2019-02-02T02:27:48.466Z,98971.44
2019-02-02T02:30:18.857Z,98967.42
2019-02-02T02:32:47.655Z,98962.63
2019-02-02T02:35:16.394Z,98956.53
2019-02-02T02:37:45.088Z,98961.12
2019-02-02T02:40:17.055Z,98957.52
2019-02-02T02:42:45.991Z,98958.89
2019-02-02T02:45:15.031Z,98953.32
2019-02-02T02:47:43.770Z,98966.92
2019-02-02T02:50:14.673Z,98955.88
2019-02-02T02:52:43.332Z,98955.41
2019-02-02T02:55:13.826Z,98942.98
2019-02-02T02:57:42.496Z,98946.73
2019-02-02T03:00:19.752Z,98936.93
2019-02-02T03:02:48.490Z,98934.08
2019-02-02T03:05:18.225Z,98927.97
2019-02-02T03:07:47.738Z,98923.91
2019-02-02T03:10:18.563Z,98926.56
2019-02-02T03:12:47.192Z,98928.12
2019-02-02T03:15:17.384Z,98931.70
2019-02-02T03:17:46.539Z,98935.95
2019-02-02T03:20:18.383Z,98920.22
2019-02-02T03:22:47.053Z,98920.88
2019-02-02T03:25:24.333Z,98929.78
2019-02-02T03:27:53.007Z,98945.16
2019-02-02T03:30:22.726Z,98934.02
2019-02-02T03:32:51.668Z,98931.22
2019-02-02T03:35:22.766Z,98929.34
2019-02-02T03:37:51.763Z,98929.13
2019-02-02T03:40:24.716Z,98931.98
2019-02-02T03:42:53.552Z,98926.39
2019-02-02T03:45:24.563Z,98932.83
2019-02-02T03:47:54.188Z,98938.84
2019-02-02T03:50:25.786Z,98945.46
2019-02-02T03:52:54.379Z,98960.01
2019-02-02T03:55:23.057Z,98957.33
2019-02-02T03:57:51.692Z,98962.70
2019-02-02T04:00:22.312Z,98960.59
2019-02-02T04:02:51.077Z,98962.00
2019-02-02T04:05:22.014Z,98946.91
2019-02-02T04:07:50.638Z,98954.75
2019-02-02T04:10:19.260Z,98945.55
2019-02-02T04:12:48.003Z,98948.64
2019-02-02T04:15:18.095Z,98952.31
2019-02-02T04:17:47.171Z,98956.40
2019-02-02T04:20:17.807Z,98954.08
2019-02-02T04:22:47.484Z,98934.41
2019-02-02T04:25:16.589Z,98932.59
2019-02-02T04:27:45.220Z,98928.69
2019-02-02T04:30:16.901Z,98938.78
2019-02-02T04:32:45.641Z,98939.30
2019-02-02T04:35:14.309Z,98951.90
2019-02-02T04:37:42.943Z,98947.91
2019-02-02T04:40:14.153Z,98952.88
2019-02-02T04:42:42.693Z,98944.36
2019-02-02T04:45:16.332Z,98934.02
2019-02-02T04:47:44.968Z,98921.80
2019-02-02T04:50:21.444Z,98933.13
2019-02-02T04:52:50.145Z,98933.66
2019-02-02T04:55:20.039Z,98934.62
2019-02-02T04:57:48.696Z,98938.60
2019-02-02T05:00:20.340Z,98941.20
2019-02-02T05:02:48.944Z,98935.16
2019-02-02T05:05:18.586Z,98922.25
2019-02-02T05:07:47.207Z,98912.45
2019-02-02T05:10:20.744Z,98922.28
2019-02-02T05:12:49.344Z,98937.33
2019-02-02T05:15:18.016Z,98941.41
2019-02-02T05:17:46.630Z,98932.67
2019-02-02T05:20:19.585Z,98935.81
2019-02-02T05:22:48.606Z,98930.53
2019-02-02T05:25:17.723Z,98937.66
2019-02-02T05:27:46.465Z,98946.84
2019-02-02T05:30:26.701Z,98947.58
2019-02-02T05:32:55.375Z,98940.13
2019-02-02T05:35:24.000Z,98943.97
2019-02-02T05:37:55.398Z,98934.80
2019-02-02T05:40:24.663Z,98928.69
2019-02-02T05:42:53.329Z,98921.50
2019-02-02T05:45:23.797Z,98915.63
2019-02-02T05:47:52.384Z,98913.46
2019-02-02T05:50:23.190Z,98920.91
2019-02-02T05:52:52.960Z,98927.14
2019-02-02T05:55:23.681Z,98934.77
2019-02-02T05:57:52.427Z,98935.66
2019-02-02T06:03:18.055Z,98944.48
2019-02-02T06:05:46.799Z,98947.58
2019-02-02T06:08:15.362Z,98954.47
2019-02-02T06:10:43.985Z,98959.89
2019-02-02T06:13:12.659Z,98956.87
2019-02-02T06:15:41.364Z,98956.94
2019-02-02T06:18:10.093Z,98973.13
2019-02-02T06:20:38.657Z,98973.36
2019-02-02T06:23:07.263Z,98967.93
2019-02-02T06:25:35.836Z,98975.56
2019-02-02T06:28:04.725Z,98978.71
2019-02-02T06:30:33.460Z,98981.13
2019-02-02T06:33:02.015Z,98986.25
2019-02-02T06:35:32.327Z,98990.92
2019-02-02T06:38:00.947Z,98983.15
2019-02-02T06:40:29.607Z,98977.10
2019-02-02T06:42:58.190Z,98983.59
2019-02-02T06:45:29.130Z,98993.56
2019-02-02T06:47:57.754Z,98996.58
2019-02-02T06:50:26.494Z,99000.61
2019-02-02T06:52:55.053Z,98996.81
2019-02-02T06:55:23.658Z,98988.14
2019-02-02T06:57:52.223Z,98972.31
2019-02-02T07:00:22.857Z,98977.65
2019-02-02T07:02:52.000Z,98958.72
2019-02-02T07:05:21.035Z,98963.58
2019-02-02T07:07:49.637Z,98969.70
2019-02-02T07:10:29.177Z,98968.47
2019-02-02T07:12:57.738Z,98963.28
2019-02-02T07:15:28.833Z,98964.92
2019-02-02T07:17:57.586Z,98974.34
2019-02-02T07:20:28.999Z,98982.18
2019-02-02T07:22:57.718Z,98980.09
2019-02-02T07:25:26.364Z,98993.57
2019-02-02T07:27:55.031Z,98992.89
2019-02-02T07:30:29.686Z,98994.55
2019-02-02T07:32:55.268Z,98999.44
2019-02-02T07:35:23.922Z,99002.04
2019-02-02T07:37:52.482Z,99013.81
2019-02-02T07:40:21.957Z,99015.91
2019-02-02T07:42:51.026Z,99019.52
2019-02-02T07:45:31.356Z,99028.91
2019-02-02T07:48:02.237Z,99041.88
2019-02-02T07:50:30.922Z,99050.70
2019-02-02T07:53:01.507Z,99050.41
2019-02-02T07:55:29.794Z,99050.16
2019-02-02T07:57:58.403Z,99048.45
2019-02-02T08:00:40.771Z,99051.16
2019-02-02T08:03:04.471Z,99051.16
2019-02-02T08:05:33.074Z,99041.07
2019-02-02T08:08:03.238Z,99042.27
2019-02-02T08:10:34.697Z,99045.75
2019-02-02T08:13:03.318Z,99042.60
2019-02-02T08:15:33.903Z,99040.68
2019-02-02T08:18:04.811Z,99036.91
2019-02-02T08:20:33.694Z,99041.23
2019-02-02T08:23:04.446Z,99051.56
2019-02-02T08:25:34.272Z,99061.76
2019-02-02T08:28:03.148Z,99066.06
2019-02-02T08:30:35.612Z,99047.56
2019-02-02T08:33:03.732Z,99061.86
2019-02-02T08:35:33.859Z,99062.29
2019-02-02T08:38:04.990Z,99055.58
2019-02-02T08:40:33.689Z,99059.68
2019-02-02T08:43:02.239Z,99050.90
2019-02-02T08:45:30.835Z,99064.33
2019-02-02T08:48:01.278Z,99055.26
2019-02-02T08:50:35.324Z,99053.84
2019-02-02T08:53:04.245Z,99054.52
2019-02-02T08:55:32.945Z,99048.27
2019-02-02T08:58:01.530Z,99047.75
2019-02-02T09:00:33.107Z,99049.12
2019-02-02T09:03:03.230Z,99051.06
2019-02-02T09:05:33.288Z,99052.20
2019-02-02T09:08:05.349Z,99057.02
2019-02-02T09:10:34.213Z,99064.13
2019-02-02T09:13:02.821Z,99075.97
2019-02-02T09:15:31.383Z,99083.35
2019-02-02T09:18:06.119Z,99097.38
2019-02-02T09:20:35.106Z,99105.67
2019-02-02T09:23:06.611Z,99108.39
2019-02-02T09:25:34.047Z,99103.41
2019-02-02T09:28:05.704Z,99108.87
2019-02-02T09:30:36.105Z,99128.56
2019-02-02T09:33:05.445Z,99116.42
2019-02-02T09:35:34.006Z,99108.87
2019-02-02T09:38:05.902Z,99110.30
2019-02-02T09:40:34.801Z,99110.39
2019-02-02T09:43:03.430Z,99115.52
2019-02-02T09:45:35.085Z,99129.46
2019-02-02T09:48:03.691Z,99128.71
2019-02-02T09:50:32.235Z,99125.16
2019-02-02T09:53:02.579Z,99129.39
2019-02-02T09:55:33.997Z,99138.87
2019-02-02T09:58:08.797Z,99142.77
2019-02-02T10:00:38.793Z,99141.93
2019-02-02T10:03:07.907Z,99131.22
2019-02-02T10:05:36.699Z,99128.62
2019-02-02T10:08:05.341Z,99122.36
2019-02-02T10:10:35.200Z,99124.20
2019-02-02T10:13:04.085Z,99134.02
2019-02-02T10:15:35.563Z,99134.02
2019-02-02T10:18:04.708Z,99138.42
2019-02-02T10:20:33.253Z,99139.72
2019-02-02T10:23:04.869Z,99138.74
2019-02-02T10:25:33.426Z,99128.79
2019-02-02T10:28:05.008Z,99134.14
2019-02-02T10:30:38.953Z,99130.81
2019-02-02T10:33:08.051Z,99138.88
2019-02-02T10:35:36.662Z,99137.67
2019-02-02T10:38:05.907Z,99133.78
2019-02-02T10:40:34.604Z,99139.81
2019-02-02T10:43:03.776Z,99133.05
2019-02-02T10:45:33.955Z,99139.78
2019-02-02T10:48:03.569Z,99133.86
2019-02-02T10:50:33.090Z,99125.18
2019-02-02T10:53:02.677Z,99142.47
2019-02-02T10:55:31.674Z,99144.41
2019-02-02T10:58:03.478Z,99142.83
2019-02-02T11:00:34.634Z,99140.02
2019-02-02T11:03:03.275Z,99137.94
2019-02-02T11:05:34.709Z,99132.20
2019-02-02T11:08:04.610Z,99134.44
2019-02-02T11:10:34.558Z,99128.34
2019-02-02T11:13:03.243Z,99126.63
2019-02-02T11:15:34.873Z,99125.04
2019-02-02T11:18:03.549Z,99124.70
2019-02-02T11:20:34.223Z,99117.76
2019-02-02T11:23:03.193Z,99119.20
2019-02-02T11:25:34.544Z,99124.11
2019-02-02T11:28:03.353Z,99124.02
2019-02-02T11:30:32.278Z,99125.88
2019-02-02T11:33:00.975Z,99125.88
2019-02-02T11:35:29.654Z,99124.89
2019-02-02T11:37:58.397Z,99113.27
2019-02-02T11:40:37.911Z,99118.75
2019-02-02T11:43:12.873Z,99123.80
2019-02-02T11:45:41.422Z,99126.23
2019-02-02T11:48:10.000Z,99125.12
2019-02-02T11:50:38.598Z,99125.41
2019-02-02T11:53:07.404Z,99124.60
2019-02-02T11:55:36.071Z,99120.30
2019-02-02T11:58:04.832Z,99113.38
2019-02-02T12:00:36.249Z,99120.55
2019-02-02T12:03:05.149Z,99132.94
2019-02-02T12:05:34.107Z,99136.83
2019-02-02T12:08:05.476Z,99125.02
2019-02-02T12:10:35.283Z,99132.87
2019-02-02T12:13:04.463Z,99145.67
2019-02-02T12:15:33.166Z,99157.80
2019-02-02T12:18:03.286Z,99146.98
2019-02-02T12:20:34.828Z,99144.35
2019-02-02T12:23:03.513Z,99149.25
2019-02-02T12:25:32.076Z,99149.64
2019-02-02T12:28:02.424Z,99151.45
2019-02-02T12:30:35.239Z,99149.01
2019-02-02T12:33:04.516Z,99142.98
2019-02-02T12:35:33.150Z,99146.82
2019-02-02T12:38:03.284Z,99143.04
2019-02-02T12:40:34.943Z,99150.23
2019-02-02T12:43:03.544Z,99148.14
2019-02-02T12:45:49.106Z,99145.84
2019-02-02T12:48:17.802Z,99145.83
2019-02-02T12:50:46.363Z,99153.28
2019-02-02T12:53:15.007Z,99151.12
2019-02-02T12:55:43.946Z,99153.42
2019-02-02T12:58:12.713Z,99168.70
2019-02-02T13:00:44.301Z,99168.98
2019-02-02T13:03:11.837Z,99187.28
2019-02-02T13:05:40.397Z,99196.04
2019-02-02T13:08:09.214Z,99202.78
2019-02-02T13:10:38.200Z,99200.56
2019-02-02T13:13:07.715Z,99206.53
2019-02-02T13:15:36.319Z,99225.80
2019-02-02T13:18:05.020Z,99231.41
2019-02-02T13:20:33.775Z,99231.07
2019-02-02T13:23:03.985Z,99238.02
2019-02-02T13:25:35.360Z,99236.78
2019-02-02T13:28:04.035Z,99240.67
2019-02-02T13:30:36.774Z,99241.00
2019-02-02T13:33:06.103Z,99245.27
2019-02-02T13:35:36.711Z,99249.95
2019-02-02T13:38:05.824Z,99253.02
2019-02-02T13:40:34.504Z,99250.84
2019-02-02T13:43:03.482Z,99250.09
2019-02-02T13:45:35.232Z,99249.88
2019-02-02T13:48:04.120Z,99247.91
2019-02-02T13:50:35.467Z,99255.47
2019-02-02T13:53:04.953Z,99249.51
2019-02-02T13:55:33.566Z,99248.33
2019-02-02T13:58:02.142Z,99247.47
2019-02-02T14:00:34.955Z,99248.45
2019-02-02T14:03:04.011Z,99250.19
2019-02-02T14:05:32.967Z,99254.69
2019-02-02T14:08:02.011Z,99257.03
2019-02-02T14:10:35.314Z,99261.66
2019-02-02T14:13:03.970Z,99265.27
2019-02-02T14:15:34.090Z,99266.62
2019-02-02T14:18:05.993Z,99266.63
2019-02-02T14:20:35.039Z,99274.23
2019-02-02T14:23:03.770Z,99275.41
2019-02-02T14:25:32.349Z,99279.13
2019-02-02T14:28:00.906Z,99289.00
2019-02-02T14:30:29.624Z,99292.14
2019-02-02T14:32:58.212Z,99298.48
2019-02-02T14:35:28.641Z,99297.14
2019-02-02T14:37:57.378Z,99301.70
2019-02-02T14:40:26.043Z,99303.67
2019-02-02T14:42:54.680Z,99307.52
2019-02-02T14:45:27.666Z,99310.14
2019-02-02T14:47:56.193Z,99314.33
2019-02-02T14:50:25.438Z,99324.41
2019-02-02T14:52:57.012Z,99324.26
2019-02-02T14:55:27.864Z,99329.90
2019-02-02T14:57:56.491Z,99322.55
2019-02-02T15:00:27.338Z,99327.34
2019-02-02T15:02:56.378Z,99326.50
2019-02-02T15:05:25.109Z,99328.17
2019-02-02T15:07:53.696Z,99325.02
2019-02-02T15:10:23.093Z,99327.86
2019-02-02T15:12:51.836Z,99332.52
2019-02-02T15:15:23.588Z,99338.87
2019-02-02T15:17:52.256Z,99339.13
2019-02-02T15:20:26.551Z,99350.64
2019-02-02T15:22:55.151Z,99359.49
2019-02-02T15:25:23.951Z,99356.23
2019-02-02T15:27:52.692Z,99359.08
2019-02-02T15:30:24.232Z,99357.91
2019-02-02T15:32:53.024Z,99363.83
2019-02-02T15:35:21.679Z,99368.90
2019-02-02T15:37:50.417Z,99375.41
2019-02-02T15:40:20.372Z,99372.84
2019-02-02T15:42:49.075Z,99379.70
2019-02-02T15:45:38.023Z,99381.22
2019-02-02T15:48:06.763Z,99384.33
2019-02-02T15:50:35.528Z,99384.33
2019-02-02T15:53:04.440Z,99392.36
2019-02-02T15:55:33.665Z,99387.94
2019-02-02T15:58:03.826Z,99383.77
2019-02-02T16:00:37.421Z,99380.48
2019-02-02T16:03:06.378Z,99381.03
2019-02-02T16:05:55.721Z,99378.82
2019-02-02T16:08:24.444Z,99376.86
2019-02-02T16:10:58.650Z,99380.59
2019-02-02T16:13:27.751Z,99387.34
2019-02-02T16:15:56.820Z,99396.69
2019-02-02T16:18:25.404Z,99401.31
2019-02-02T16:20:54.033Z,99402.21
2019-02-02T16:23:22.634Z,99413.80
2019-02-02T16:25:51.196Z,99417.30
2019-02-02T16:28:19.920Z,99423.84
2019-02-02T16:30:48.728Z,99424.98
2019-02-02T16:33:17.295Z,99433.95
2019-02-02T16:35:45.971Z,99435.69
2019-02-02T16:38:14.620Z,99444.78
2019-02-02T16:40:43.744Z,99452.84
2019-02-02T16:43:12.488Z,99461.23
2019-02-02T16:45:41.445Z,99470.92
2019-02-02T16:48:10.058Z,99471.12
2019-02-02T16:50:38.775Z,99472.70
2019-02-02T16:53:07.375Z,99487.47
2019-02-02T16:55:36.012Z,99499.89
2019-02-02T16:58:05.223Z,99514.37
2019-02-02T17:00:34.547Z,99527.47
2019-02-02T17:03:03.224Z,99533.69
2019-02-02T17:05:34.740Z,99522.27
2019-02-02T17:08:03.431Z,99519.39
2019-02-02T17:10:34.438Z,99522.80
2019-02-02T17:13:03.109Z,99532.45
2019-02-02T17:15:33.267Z,99534.23
2019-02-02T17:18:02.163Z,99531.33
2019-02-02T17:20:55.857Z,99526.20
2019-02-02T17:23:24.465Z,99541.56
2019-02-02T17:25:53.014Z,99547.44
2019-02-02T17:28:21.748Z,99552.71
2019-02-02T17:30:50.473Z,99563.89
2019-02-02T17:33:19.167Z,99571.09
2019-02-02T17:35:47.723Z,99579.89
2019-02-02T17:38:16.324Z,99581.09
2019-02-02T17:40:45.347Z,99582.13
2019-02-02T17:43:14.239Z,99577.23
2019-02-02T17:45:43.199Z,99583.90
2019-02-02T17:48:13.254Z,99586.94
2019-02-02T17:50:42.105Z,99594.14
2019-02-02T17:53:10.782Z,99593.34
2019-02-02T17:55:39.428Z,99579.91
2019-02-02T17:58:08.031Z,99576.41
2019-02-02T18:00:41.463Z,99570.63
2019-02-02T18:03:10.018Z,99590.25
2019-02-02T18:05:38.624Z,99595.28
2019-02-02T18:08:07.342Z,99603.42
2019-02-02T18:10:35.937Z,99608.20
2019-02-02T18:13:05.042Z,99616.81
2019-02-02T18:15:33.761Z,99627.75
2019-02-02T18:18:04.138Z,99631.41
2019-02-02T18:20:35.702Z,99624.17
2019-02-02T18:23:04.951Z,99615.28
2019-02-02T18:25:33.561Z,99617.56
2019-02-02T18:28:02.286Z,99626.19
2019-02-02T18:30:30.916Z,99632.30
2019-02-02T18:32:59.589Z,99636.89
2019-02-02T18:35:28.173Z,99639.80
2019-02-02T18:37:56.769Z,99649.02
2019-02-02T18:40:25.956Z,99665.37
2019-02-02T18:42:54.744Z,99665.81
2019-02-02T18:45:25.590Z,99670.55
2019-02-02T18:47:54.321Z,99664.63
2019-02-02T18:50:23.066Z,99661.23
2019-02-02T18:52:53.702Z,99659.42
2019-02-02T18:55:28.745Z,99664.09
2019-02-02T18:57:57.456Z,99673.91
2019-02-02T19:00:26.136Z,99676.07
2019-02-02T19:02:55.246Z,99686.52
2019-02-02T19:05:23.938Z,99686.73
2019-02-02T19:07:53.021Z,99677.31
2019-02-02T19:10:24.785Z,99687.70
2019-02-02T19:12:53.370Z,99692.83
2019-02-02T19:15:22.101Z,99701.53
2019-02-02T19:17:51.181Z,99712.72
2019-02-02T19:20:23.578Z,99722.22
2019-02-02T19:22:57.228Z,99720.05
2019-02-02T19:25:25.574Z,99727.39
2019-02-02T19:27:54.167Z,99722.61
2019-02-02T19:30:28.671Z,99715.77
2019-02-02T19:32:57.425Z,99718.23
2019-02-02T19:35:26.424Z,99722.47
2019-02-02T19:37:55.102Z,99732.72
2019-02-02T19:40:23.903Z,99732.91
2019-02-02T19:42:52.592Z,99745.81
2019-02-02T19:45:23.808Z,99753.24
2019-02-02T19:47:52.883Z,99763.59
2019-02-02T19:50:24.604Z,99777.91
2019-02-02T19:52:53.721Z,99772.91
2019-02-02T19:55:23.053Z,99783.29
2019-02-02T19:57:52.129Z,99793.16
2019-02-02T20:00:26.132Z,99798.55
2019-02-02T20:02:55.558Z,99806.77
2019-02-02T20:05:28.825Z,99805.21
2019-02-02T20:07:54.687Z,99809.13
2019-02-02T20:10:23.899Z,99816.63
2019-02-02T20:12:56.193Z,99831.83
2019-02-02T20:15:28.513Z,99839.13
2019-02-02T20:18:08.882Z,99834.60
2019-02-02T20:20:28.967Z,99830.88
2019-02-02T20:22:57.908Z,99835.69
2019-02-02T20:25:27.579Z,99829.44
2019-02-02T20:27:56.310Z,99839.89
2019-02-02T20:30:27.231Z,99844.66
2019-02-02T20:32:56.534Z,99847.38
2019-02-02T20:35:25.111Z,99849.34
2019-02-02T20:37:53.969Z,99846.97
2019-02-02T20:40:24.332Z,99866.80
2019-02-02T20:42:53.393Z,99872.29
2019-02-02T20:45:41.610Z,99872.33
2019-02-02T20:48:10.630Z,99868.92
2019-02-02T20:50:39.647Z,99882.22
2019-02-02T20:53:08.819Z,99889.14
2019-02-02T20:55:40.556Z,99891.98
2019-02-02T20:58:09.364Z,99895.03
2019-02-02T21:00:38.844Z,99900.16
2019-02-02T21:03:07.593Z,99898.32
2019-02-02T21:05:36.310Z,99908.69
2019-02-02T21:08:05.582Z,99912.56
2019-02-02T21:10:34.363Z,99912.42
2019-02-02T21:13:24.203Z,99909.41
2019-02-02T21:15:52.880Z,99920.52
2019-02-02T21:18:21.457Z,99935.05
2019-02-02T21:20:51.006Z,99941.02
2019-02-02T21:23:19.739Z,99941.45
2019-02-02T21:25:48.405Z,99940.25
2019-02-02T21:28:16.990Z,99939.11
2019-02-02T21:30:46.022Z,99931.31
2019-02-02T21:33:14.877Z,99924.47
2019-02-02T21:35:43.505Z,99920.80
2019-02-02T21:38:12.143Z,99928.31
2019-02-02T21:40:40.854Z,99936.91
2019-02-02T21:43:09.730Z,99942.81
2019-02-02T21:45:38.577Z,99946.59
2019-02-02T21:48:07.388Z,99955.63
2019-02-02T21:50:39.318Z,99960.20
2019-02-02T21:53:08.522Z,99955.89
2019-02-02T21:55:37.328Z,99959.73
2019-02-02T21:58:06.952Z,99982.03
2019-02-02T22:00:38.819Z,99977.78
2019-02-02T22:03:10.039Z,99981.19
2019-02-02T22:05:38.964Z,99984.70
2019-02-02T22:08:08.026Z,99988.88
2019-02-02T22:10:36.709Z,99976.06
2019-02-02T22:13:06.531Z,99974.30
2019-02-02T22:15:35.293Z,99977.38
2019-02-02T22:18:04.019Z,99986.41
2019-02-02T22:20:35.514Z,99989.25
2019-02-02T22:23:04.222Z,99988.14
2019-02-02T22:25:33.710Z,99990.30
2019-02-02T22:28:02.358Z,99993.30
2019-02-02T22:30:38.100Z,99992.42
2019-02-02T22:33:06.906Z,99991.38
2019-02-02T22:35:35.547Z,99984.70
2019-02-02T22:38:04.392Z,99989.89
2019-02-02T22:40:33.494Z,99992.35
2019-02-02T22:43:02.435Z,100002.20
2019-02-02T22:45:34.041Z,100005.98
2019-02-02T22:48:06.467Z,100005.53
2019-02-02T22:50:35.020Z,100009.72
2019-02-02T22:53:04.102Z,100014.95
2019-02-02T22:55:32.676Z,100016.42
2019-02-02T22:58:01.285Z,100009.92
2019-02-02T23:00:43.265Z,100026.11
2019-02-02T23:03:24.415Z,100036.05
2019-02-02T23:05:59.565Z,100026.71
2019-02-02T23:08:40.207Z,100030.92
2019-02-02T23:11:14.939Z,100053.18
2019-02-02T23:13:58.498Z,100050.73
2019-02-02T23:16:28.325Z,100053.27
2019-02-02T23:18:57.070Z,100072.75
2019-02-02T23:21:26.158Z,100084.37
2019-02-02T23:23:55.101Z,100077.20
2019-02-02T23:26:23.656Z,100079.80
2019-02-02T23:28:52.283Z,100096.74
2019-02-02T23:31:21.713Z,100112.56
2019-02-02T23:33:50.282Z,100127.09
2019-02-02T23:36:19.053Z,100135.59
2019-02-02T23:38:47.602Z,100156.86
2019-02-02T23:41:16.239Z,100176.11
2019-02-02T23:43:44.824Z,100189.23
2019-02-02T23:46:13.776Z,100193.64
2019-02-02T23:48:42.377Z,100200.79
2019-02-02T23:51:10.927Z,100206.41
2019-02-02T23:53:39.681Z,100214.06
2019-02-02T23:56:08.320Z,100220.47
2019-02-02T23:58:36.922Z,100220.02
